Time;durP1;ratioP1;P1;durP2;ratioP2;P2;SDS_P1;SDS_P2;PMS_P1;PMS_P2;Temp;Humidity;BMP_temperature;BMP_pressure;BME280_temperature;BME280_humidity;BME280_pressure;Samples;Min_cycle;Max_cycle;Signal;HPM_P1;HPM_P2
2023/04/09 00:00:21;;;;;;;;;;;7.80;99.90;;;;;;2055317;28;19913;-72
2023/04/09 00:01:21;;;;;;;;;;;7.80;99.90;;;;;;2057185;28;19910;-72
2023/04/09 00:02:22;;;;;;;;;;;7.80;99.90;;;;;;2058233;28;20373;-72
2023/04/09 00:03:22;;;;;;;;;;;7.80;99.90;;;;;;2062288;28;19909;-71
2023/04/09 00:04:23;;;;;;;;;;;7.70;99.90;;;;;;2057464;28;19992;-72
2023/04/09 00:05:23;;;;;;;;;;;7.70;99.90;;;;;;2055994;28;19985;-72
2023/04/09 00:06:24;;;;;;;;;;;7.70;99.90;;;;;;2058650;28;19944;-72
2023/04/09 00:07:25;;;;;;;;;;;7.70;99.90;;;;;;2056687;28;20093;-71
2023/04/09 00:08:25;;;;;;;;;;;7.70;99.90;;;;;;2055826;28;19926;-71
2023/04/09 00:09:26;;;;;;;;;;;7.70;99.90;;;;;;2056867;28;20794;-72
2023/04/09 00:10:26;;;;;;;;;;;7.60;99.90;;;;;;2056656;28;19910;-72
2023/04/09 00:11:27;;;;;;;;;;;7.60;99.90;;;;;;2074998;28;19917;-72
2023/04/09 00:12:29;;;;;;;;;;;7.60;99.90;;;;;;2074317;28;19979;-72
2023/04/09 00:13:29;;;;;;;;;;;7.60;99.90;;;;;;2057518;28;20337;-72
2023/04/09 00:14:30;;;;;;;;;;;7.60;99.90;;;;;;2058646;28;20392;-71
2023/04/09 00:15:30;;;;;;;;;;;7.60;99.90;;;;;;2056704;28;21018;-72
2023/04/09 00:16:31;;;;;;;;;;;7.60;99.90;;;;;;2057126;28;19910;-72
2023/04/09 00:17:31;;;;;;;;;;;7.60;99.90;;;;;;2073704;28;19913;-72
2023/04/09 00:18:31;;;;;;;;;;;7.50;99.90;;;;;;2072718;28;20794;-71
2023/04/09 00:19:32;;;;;;;;;;;7.50;99.90;;;;;;2064921;28;19913;-71
2023/04/09 00:20:32;;;;;;;;;;;7.50;99.90;;;;;;2064862;28;20024;-72
2023/04/09 00:21:33;;;;;;;;;;;7.50;99.90;;;;;;2056849;28;21182;-72
2023/04/09 00:22:33;;;;;;;;;;;7.50;99.90;;;;;;2058248;28;20709;-71
2023/04/09 00:23:34;;;;;;;;;;;7.50;99.90;;;;;;2057997;28;19913;-72
2023/04/09 00:24:35;;;;;;;;;;;7.40;99.90;;;;;;2056776;28;19921;-72
2023/04/09 00:25:36;;;;;;;;;;;7.50;99.90;;;;;;2058754;28;19909;-72
2023/04/09 00:26:36;;;;;;;;;;;7.40;99.90;;;;;;2058634;28;20456;-72
2023/04/09 00:27:37;;;;;;;;;;;7.40;99.90;;;;;;2056471;28;19906;-72
2023/04/09 00:28:37;;;;;;;;;;;7.40;99.90;;;;;;2058960;28;19914;-72
2023/04/09 00:29:38;;;;;;;;;;;7.40;99.90;;;;;;2058388;28;19914;-72
2023/04/09 00:30:38;;;;;;;;;;;7.40;99.90;;;;;;2065601;28;20443;-72
2023/04/09 00:31:39;;;;;;;;;;;7.40;99.90;;;;;;2065190;28;20031;-72
2023/04/09 00:32:39;;;;;;;;;;;7.40;99.90;;;;;;2058261;28;19910;-72
2023/04/09 00:33:40;;;;;;;;;;;7.30;99.90;;;;;;2058192;28;19918;-72
2023/04/09 00:34:40;;;;;;;;;;;7.30;99.90;;;;;;2056812;28;19989;-72
2023/04/09 00:35:41;;;;;;;;;;;7.30;99.90;;;;;;2058210;28;19914;-71
2023/04/09 00:36:41;;;;;;;;;;;7.30;99.90;;;;;;2056926;28;19949;-72
2023/04/09 00:37:42;;;;;;;;;;;7.30;99.90;;;;;;2058454;28;20285;-72
2023/04/09 00:38:42;;;;;;;;;;;7.30;99.90;;;;;;2057677;28;19921;-72
2023/04/09 00:39:43;;;;;;;;;;;7.30;99.90;;;;;;2055169;28;19918;-72
2023/04/09 00:40:47;;;;;;;;;;;7.30;99.90;;;;;;2058378;28;19924;-72
2023/04/09 00:41:48;;;;;;;;;;;7.30;99.90;;;;;;2059450;28;19968;-72
2023/04/09 00:42:48;;;;;;;;;;;7.20;99.90;;;;;;2065144;28;20067;-72
2023/04/09 00:43:49;;;;;;;;;;;7.20;99.90;;;;;;2064601;28;19914;-72
2023/04/09 00:44:49;;;;;;;;;;;7.20;99.90;;;;;;2060396;28;19913;-72
2023/04/09 00:45:50;;;;;;;;;;;7.20;99.90;;;;;;2059446;28;19910;-72
2023/04/09 00:46:51;;;;;;;;;;;7.20;99.90;;;;;;2054334;28;19918;-72
2023/04/09 00:47:52;;;;;;;;;;;7.10;99.90;;;;;;2058103;28;20270;-72
2023/04/09 00:48:52;;;;;;;;;;;7.20;99.90;;;;;;2057552;28;20005;-72
2023/04/09 00:49:53;;;;;;;;;;;7.10;99.90;;;;;;2058419;28;19914;-72
2023/04/09 00:50:54;;;;;;;;;;;7.10;99.90;;;;;;2056109;28;20453;-72
2023/04/09 00:51:54;;;;;;;;;;;7.10;99.90;;;;;;2058244;28;19917;-72
2023/04/09 00:52:55;;;;;;;;;;;7.10;99.90;;;;;;2058226;28;19933;-72
2023/04/09 00:53:56;;;;;;;;;;;7.10;99.90;;;;;;2059107;28;19913;-72
2023/04/09 00:54:58;;;;;;;;;;;7.10;99.90;;;;;;2059824;28;19917;-72
2023/04/09 00:55:58;;;;;;;;;;;7.10;99.90;;;;;;2057783;28;20354;-72
2023/04/09 00:56:59;;;;;;;;;;;7.00;99.90;;;;;;2061630;28;20540;-72
2023/04/09 00:58:00;;;;;;;;;;;7.00;99.90;;;;;;2059515;28;19914;-71
2023/04/09 00:59:01;;;;;;;;;;;7.00;99.90;;;;;;2067075;28;19980;-72
2023/04/09 01:00:03;;;;;;;;;;;7.00;99.90;;;;;;2067268;28;19917;-72
2023/04/09 01:01:03;;;;;;;;;;;6.90;99.90;;;;;;2061268;28;20329;-72
2023/04/09 01:02:04;;;;;;;;;;;6.90;99.90;;;;;;2061235;28;19976;-72
2023/04/09 01:03:05;;;;;;;;;;;6.90;99.90;;;;;;2057252;28;20745;-72
2023/04/09 01:04:05;;;;;;;;;;;6.90;99.90;;;;;;2059177;28;19918;-72
2023/04/09 01:05:06;;;;;;;;;;;6.90;99.90;;;;;;2060757;28;20029;-72
2023/04/09 01:06:10;;;;;;;;;;;6.90;99.90;;;;;;2060817;28;19916;-72
2023/04/09 01:07:12;;;;;;;;;;;6.90;99.90;;;;;;2059703;28;20341;-72
2023/04/09 01:08:20;;;;;;;;;;;6.90;99.90;;;;;;2058933;28;19910;-72
2023/04/09 01:09:29;;;;;;;;;;;6.90;99.90;;;;;;2060048;28;19918;-72
2023/04/09 01:10:43;;;;;;;;;;;6.80;99.90;;;;;;2061136;28;19909;-72
2023/04/09 01:11:49;;;;;;;;;;;6.80;99.90;;;;;;2062082;28;19913;-72
2023/04/09 01:13:13;;;;;;;;;;;6.80;99.90;;;;;;2062936;28;20004;-72
2023/04/09 01:14:19;;;;;;;;;;;6.80;99.90;;;;;;2062929;28;20021;-72
2023/04/09 01:15:27;;;;;;;;;;;6.80;99.90;;;;;;2061512;28;19909;-72
2023/04/09 01:16:28;;;;;;;;;;;6.80;99.90;;;;;;2074520;28;20555;-72
2023/04/09 01:17:45;;;;;;;;;;;6.70;99.90;;;;;;2074332;28;19962;-72
2023/04/09 01:18:55;;;;;;;;;;;6.70;99.90;;;;;;2057327;28;19925;-72
2023/04/09 01:19:59;;;;;;;;;;;6.70;99.90;;;;;;2056904;28;20353;-72
2023/04/09 01:20:59;;;;;;;;;;;6.70;99.90;;;;;;2059232;28;19914;-72
2023/04/09 01:22:01;;;;;;;;;;;6.70;99.90;;;;;;2066770;28;19917;-72
2023/04/09 01:23:22;;;;;;;;;;;6.60;99.90;;;;;;2059882;28;19978;-72
2023/04/09 01:24:45;;;;;;;;;;;6.60;99.90;;;;;;2060629;28;19914;-72
2023/04/09 01:26:25;;;;;;;;;;;6.60;99.90;;;;;;2060559;28;19914;-72
2023/04/09 01:27:31;;;;;;;;;;;6.60;99.90;;;;;;2067996;28;20016;-72
2023/04/09 01:28:34;;;;;;;;;;;6.60;99.90;;;;;;2069068;28;20465;-71
2023/04/09 01:29:37;;;;;;;;;;;6.60;99.90;;;;;;2066651;28;20715;-72
2023/04/09 01:30:40;;;;;;;;;;;6.60;99.90;;;;;;2069046;28;19909;-72
2023/04/09 01:31:41;;;;;;;;;;;6.60;99.90;;;;;;2066079;28;19913;-72
2023/04/09 01:32:42;;;;;;;;;;;6.50;99.90;;;;;;2065365;28;19913;-71
2023/04/09 01:33:43;;;;;;;;;;;6.50;99.90;;;;;;2058892;28;20464;-72
2023/04/09 01:34:46;;;;;;;;;;;6.50;99.90;;;;;;2059323;28;19918;-72
2023/04/09 01:35:48;;;;;;;;;;;6.50;99.90;;;;;;2059885;28;19905;-72
2023/04/09 01:36:51;;;;;;;;;;;6.50;99.90;;;;;;2059338;28;19924;-72
2023/04/09 01:37:53;;;;;;;;;;;6.50;99.90;;;;;;2061741;28;19914;-71
2023/04/09 01:38:54;;;;;;;;;;;6.50;99.90;;;;;;2063619;28;20493;-72
2023/04/09 01:39:55;;;;;;;;;;;6.50;99.90;;;;;;2059779;28;20353;-72
2023/04/09 01:40:56;;;;;;;;;;;6.50;99.90;;;;;;2057810;28;19914;-72
2023/04/09 01:41:56;;;;;;;;;;;6.50;99.90;;;;;;2058363;28;19910;-72
2023/04/09 01:42:58;;;;;;;;;;;6.50;99.90;;;;;;2058818;28;19909;-72
2023/04/09 01:44:00;;;;;;;;;;;6.50;99.90;;;;;;2059042;28;19997;-71
2023/04/09 01:45:01;;;;;;;;;;;6.50;99.90;;;;;;2059843;28;19914;-71
2023/04/09 01:46:02;;;;;;;;;;;6.40;99.90;;;;;;2065403;28;19921;-72
2023/04/09 01:47:03;;;;;;;;;;;6.40;99.90;;;;;;2065708;28;20008;-71
2023/04/09 01:48:04;;;;;;;;;;;6.40;99.90;;;;;;2060992;28;19913;-72
2023/04/09 01:49:05;;;;;;;;;;;6.40;99.90;;;;;;2067176;28;20448;-72
2023/04/09 01:50:06;;;;;;;;;;;6.40;99.90;;;;;;2067517;28;20395;-72
2023/04/09 01:51:06;;;;;;;;;;;6.40;99.90;;;;;;2067255;28;19928;-72
2023/04/09 01:52:07;;;;;;;;;;;6.40;99.90;;;;;;2066983;28;19921;-72
2023/04/09 01:53:08;;;;;;;;;;;6.40;99.90;;;;;;2058101;28;19906;-72
2023/04/09 01:54:08;;;;;;;;;;;6.30;99.90;;;;;;2058132;28;19960;-72
2023/04/09 01:55:09;;;;;;;;;;;6.30;99.90;;;;;;2060959;28;19913;-72
2023/04/09 01:56:10;;;;;;;;;;;6.30;99.90;;;;;;2059160;28;19932;-72
2023/04/09 01:57:10;;;;;;;;;;;6.30;99.90;;;;;;2058764;28;19916;-72
2023/04/09 01:58:10;;;;;;;;;;;6.30;99.90;;;;;;2057867;28;20277;-71
2023/04/09 01:59:11;;;;;;;;;;;6.30;99.90;;;;;;2059798;28;19914;-71
2023/04/09 02:00:12;;;;;;;;;;;6.30;99.90;;;;;;2059385;28;19917;-72
2023/04/09 02:01:19;;;;;;;;;;;6.30;99.90;;;;;;2058221;28;19910;-71
2023/04/09 02:02:25;;;;;;;;;;;6.20;99.90;;;;;;2057836;28;20448;-72
2023/04/09 02:03:29;;;;;;;;;;;6.20;99.90;;;;;;2057619;28;20346;-72
2023/04/09 02:04:34;;;;;;;;;;;6.20;99.90;;;;;;2058425;28;19961;-72
2023/04/09 02:05:40;;;;;;;;;;;6.20;99.90;;;;;;2061098;28;19925;-72
2023/04/09 02:06:47;;;;;;;;;;;6.20;99.90;;;;;;2057123;28;19914;-72
2023/04/09 02:07:51;;;;;;;;;;;6.20;99.90;;;;;;2065002;28;19938;-71
2023/04/09 02:08:52;;;;;;;;;;;6.10;99.90;;;;;;2065042;28;19913;-72
2023/04/09 02:09:53;;;;;;;;;;;6.10;99.90;;;;;;2057736;28;19914;-72
2023/04/09 02:10:56;;;;;;;;;;;6.10;99.90;;;;;;2059761;28;20615;-72
2023/04/09 02:11:57;;;;;;;;;;;6.10;99.90;;;;;;2059331;28;19910;-71
2023/04/09 02:12:59;;;;;;;;;;;6.10;99.90;;;;;;2062404;28;19909;-72
2023/04/09 02:14:00;;;;;;;;;;;6.10;99.90;;;;;;2060216;28;20009;-72
2023/04/09 02:15:01;;;;;;;;;;;6.10;99.90;;;;;;2073949;28;19959;-71
2023/04/09 02:16:02;;;;;;;;;;;6.10;99.90;;;;;;2074578;28;19996;-72
2023/04/09 02:17:03;;;;;;;;;;;6.10;99.90;;;;;;2059431;28;19969;-72
2023/04/09 02:18:03;;;;;;;;;;;6.10;99.90;;;;;;2059337;28;20494;-72
2023/04/09 02:19:04;;;;;;;;;;;6.10;99.90;;;;;;2061559;28;19963;-72
2023/04/09 02:20:04;;;;;;;;;;;6.00;99.90;;;;;;2058928;28;19913;-72
2023/04/09 02:21:05;;;;;;;;;;;6.00;99.90;;;;;;2060070;28;19913;-71
2023/04/09 02:22:06;;;;;;;;;;;6.00;99.90;;;;;;2057855;28;19910;-72
2023/04/09 02:23:06;;;;;;;;;;;6.00;99.90;;;;;;2061063;28;19960;-72
2023/04/09 02:24:07;;;;;;;;;;;6.00;99.90;;;;;;2058719;28;20028;-72
2023/04/09 02:25:07;;;;;;;;;;;6.00;99.90;;;;;;2060062;28;19925;-72
2023/04/09 02:26:08;;;;;;;;;;;6.00;99.90;;;;;;2065137;28;20338;-72
2023/04/09 02:27:08;;;;;;;;;;;5.90;99.90;;;;;;2070080;28;20024;-72
2023/04/09 02:28:09;;;;;;;;;;;6.00;99.90;;;;;;2060618;28;19955;-72
2023/04/09 02:29:09;;;;;;;;;;;5.90;99.90;;;;;;2062571;28;19964;-72
2023/04/09 02:30:10;;;;;;;;;;;5.90;99.90;;;;;;2068166;28;19956;-72
2023/04/09 02:31:10;;;;;;;;;;;5.90;99.90;;;;;;2066972;28;19992;-72
2023/04/09 02:32:11;;;;;;;;;;;5.90;99.90;;;;;;2059213;28;20005;-72
2023/04/09 02:33:11;;;;;;;;;;;5.90;99.90;;;;;;2059900;28;20647;-72
2023/04/09 02:34:11;;;;;;;;;;;5.90;99.90;;;;;;2074182;28;19937;-72
2023/04/09 02:35:13;;;;;;;;;;;5.80;99.90;;;;;;2072508;28;19920;-72
2023/04/09 02:36:13;;;;;;;;;;;5.80;99.90;;;;;;2066984;28;19910;-72
2023/04/09 02:37:14;;;;;;;;;;;5.80;99.90;;;;;;2058636;28;20008;-71
2023/04/09 02:38:14;;;;;;;;;;;5.80;99.90;;;;;;2059533;28;20021;-71
2023/04/09 02:39:15;;;;;;;;;;;5.80;99.90;;;;;;2057623;28;19964;-72
2023/04/09 02:40:15;;;;;;;;;;;5.80;99.90;;;;;;2059161;28;20006;-72
2023/04/09 02:41:16;;;;;;;;;;;5.70;99.90;;;;;;2073843;28;19913;-72
2023/04/09 02:42:16;;;;;;;;;;;5.80;99.90;;;;;;2073403;28;19957;-72
2023/04/09 02:43:17;;;;;;;;;;;5.70;99.90;;;;;;2061784;28;19968;-72
2023/04/09 02:44:17;;;;;;;;;;;5.70;99.90;;;;;;2059362;28;19929;-72
2023/04/09 02:45:18;;;;;;;;;;;5.70;99.90;;;;;;2059537;28;19918;-72
2023/04/09 02:46:18;;;;;;;;;;;5.70;99.90;;;;;;2055976;28;19910;-72
2023/04/09 02:47:19;;;;;;;;;;;5.70;99.90;;;;;;2059272;28;19964;-72
2023/04/09 02:48:19;;;;;;;;;;;5.70;99.90;;;;;;2058171;28;20489;-72
2023/04/09 02:49:20;;;;;;;;;;;5.70;99.90;;;;;;2056742;28;20285;-72
2023/04/09 02:50:20;;;;;;;;;;;5.60;99.90;;;;;;2058420;28;19905;-72
2023/04/09 02:51:21;;;;;;;;;;;5.60;99.90;;;;;;2057067;28;19925;-72
2023/04/09 02:52:23;;;;;;;;;;;5.60;99.90;;;;;;2058853;28;19913;-72
2023/04/09 02:53:24;;;;;;;;;;;5.60;99.90;;;;;;2060401;28;19952;-72
2023/04/09 02:54:24;;;;;;;;;;;5.60;99.90;;;;;;2059896;28;20000;-72
2023/04/09 02:55:25;;;;;;;;;;;5.50;99.90;;;;;;2060486;28;19914;-72
2023/04/09 02:56:25;;;;;;;;;;;5.50;99.90;;;;;;2056325;28;21240;-72
2023/04/09 02:57:26;;;;;;;;;;;5.60;99.90;;;;;;2060438;28;19972;-72
2023/04/09 02:58:26;;;;;;;;;;;5.50;99.90;;;;;;2065480;28;20348;-72
2023/04/09 02:59:27;;;;;;;;;;;5.50;99.90;;;;;;2065253;28;19952;-72
2023/04/09 03:00:27;;;;;;;;;;;5.50;99.90;;;;;;2060155;28;20285;-72
2023/04/09 03:01:27;;;;;;;;;;;5.50;99.90;;;;;;2057845;28;20465;-72
2023/04/09 03:02:28;;;;;;;;;;;5.50;99.90;;;;;;2058645;28;19912;-72
2023/04/09 03:03:29;;;;;;;;;;;5.50;99.90;;;;;;2057698;28;19909;-72
2023/04/09 03:04:30;;;;;;;;;;;5.40;99.90;;;;;;2059111;28;19910;-72
2023/04/09 03:05:30;;;;;;;;;;;5.40;99.90;;;;;;2059336;28;19917;-72
2023/04/09 03:06:31;;;;;;;;;;;5.40;99.90;;;;;;2057276;28;19910;-72
2023/04/09 03:07:31;;;;;;;;;;;5.40;99.90;;;;;;2057656;28;19917;-72
2023/04/09 03:08:32;;;;;;;;;;;5.40;99.90;;;;;;2058577;28;19953;-72
2023/04/09 03:09:32;;;;;;;;;;;5.30;99.90;;;;;;2057338;28;19921;-72
2023/04/09 03:10:32;;;;;;;;;;;5.40;99.90;;;;;;2058080;28;20286;-72
2023/04/09 03:11:33;;;;;;;;;;;5.30;99.90;;;;;;2065429;28;20697;-72
2023/04/09 03:12:34;;;;;;;;;;;5.30;99.90;;;;;;2066668;28;19996;-72
2023/04/09 03:13:35;;;;;;;;;;;5.30;99.90;;;;;;2060034;28;19971;-72
2023/04/09 03:14:35;;;;;;;;;;;5.30;99.90;;;;;;2064686;28;19968;-72
2023/04/09 03:15:35;;;;;;;;;;;5.20;99.90;;;;;;2067239;28;19909;-72
2023/04/09 03:16:36;;;;;;;;;;;5.20;99.90;;;;;;2059117;28;19913;-72
2023/04/09 03:17:36;;;;;;;;;;;5.30;99.90;;;;;;2061862;28;19917;-71
2023/04/09 03:18:37;;;;;;;;;;;5.20;99.90;;;;;;2058555;28;20623;-71
2023/04/09 03:19:37;;;;;;;;;;;5.20;99.90;;;;;;2056582;28;19973;-71
2023/04/09 03:20:38;;;;;;;;;;;5.20;99.90;;;;;;2061764;28;19905;-71
2023/04/09 03:21:39;;;;;;;;;;;5.20;99.90;;;;;;2059792;28;19914;-71
2023/04/09 03:22:40;;;;;;;;;;;5.20;99.90;;;;;;2060050;28;19913;-71
2023/04/09 03:23:40;;;;;;;;;;;5.20;99.90;;;;;;2056963;28;20024;-72
2023/04/09 03:24:41;;;;;;;;;;;5.20;99.90;;;;;;2057891;28;19949;-72
2023/04/09 03:25:41;;;;;;;;;;;5.10;99.90;;;;;;2059563;28;20362;-72
2023/04/09 03:26:41;;;;;;;;;;;5.10;99.90;;;;;;2058333;28;19910;-72
2023/04/09 03:27:42;;;;;;;;;;;5.10;99.90;;;;;;2059749;28;20012;-72
2023/04/09 03:28:42;;;;;;;;;;;5.10;99.90;;;;;;2058822;28;19916;-72
2023/04/09 03:29:43;;;;;;;;;;;5.10;99.90;;;;;;2057745;28;19914;-72
2023/04/09 03:30:43;;;;;;;;;;;5.10;99.90;;;;;;2059912;28;19909;-72
2023/04/09 03:31:44;;;;;;;;;;;5.10;99.90;;;;;;2057579;28;19918;-72
2023/04/09 03:32:44;;;;;;;;;;;5.10;99.90;;;;;;2059569;28;19914;-72
2023/04/09 03:33:45;;;;;;;;;;;5.00;99.90;;;;;;2061507;28;20040;-72
2023/04/09 03:34:45;;;;;;;;;;;5.10;99.90;;;;;;2057624;28;19956;-72
2023/04/09 03:35:46;;;;;;;;;;;5.00;99.90;;;;;;2059849;28;19916;-72
2023/04/09 03:36:46;;;;;;;;;;;5.00;99.90;;;;;;2056851;28;19917;-72
2023/04/09 03:37:47;;;;;;;;;;;5.00;99.90;;;;;;2056053;28;19952;-72
2023/04/09 03:38:47;;;;;;;;;;;5.00;99.90;;;;;;2059263;28;19917;-72
2023/04/09 03:39:48;;;;;;;;;;;5.00;99.90;;;;;;2055450;28;20644;-72
2023/04/09 03:40:48;;;;;;;;;;;4.90;99.90;;;;;;2061235;28;20286;-72
2023/04/09 03:41:49;;;;;;;;;;;4.90;99.90;;;;;;2057797;28;20005;-72
2023/04/09 03:42:49;;;;;;;;;;;4.90;99.90;;;;;;2073947;28;19937;-72
2023/04/09 03:43:50;;;;;;;;;;;4.90;99.90;;;;;;2073563;28;19909;-72
2023/04/09 03:44:52;;;;;;;;;;;4.90;99.90;;;;;;2058744;28;20369;-72
2023/04/09 03:45:52;;;;;;;;;;;4.90;99.90;;;;;;2058124;28;19968;-72
2023/04/09 03:46:53;;;;;;;;;;;4.90;99.90;;;;;;2060394;28;19953;-72
2023/04/09 03:47:53;;;;;;;;;;;4.80;99.90;;;;;;2057496;28;19960;-72
2023/04/09 03:48:54;;;;;;;;;;;4.80;99.90;;;;;;2058990;28;19941;-71
2023/04/09 03:49:54;;;;;;;;;;;4.80;99.90;;;;;;2059009;28;19913;-71
2023/04/09 03:50:54;;;;;;;;;;;4.80;99.90;;;;;;2057787;28;19906;-71
2023/04/09 03:51:55;;;;;;;;;;;4.80;99.90;;;;;;2066370;28;19913;-71
2023/04/09 03:52:55;;;;;;;;;;;4.80;99.90;;;;;;2064584;28;19905;-71
2023/04/09 03:53:56;;;;;;;;;;;4.80;99.90;;;;;;2059269;28;19909;-71
2023/04/09 03:54:56;;;;;;;;;;;4.70;99.90;;;;;;2059893;28;20405;-71
2023/04/09 03:55:57;;;;;;;;;;;4.70;99.90;;;;;;2058333;28;19917;-71
2023/04/09 03:56:57;;;;;;;;;;;4.70;99.90;;;;;;2056849;28;19913;-71
2023/04/09 03:57:58;;;;;;;;;;;4.70;99.90;;;;;;2059007;28;19996;-71
2023/04/09 03:58:58;;;;;;;;;;;4.70;99.90;;;;;;2061358;28;19921;-71
2023/04/09 03:59:59;;;;;;;;;;;4.70;99.90;;;;;;2056773;28;19996;-71
2023/04/09 04:00:59;;;;;;;;;;;4.70;99.90;;;;;;2065033;28;20067;-71
2023/04/09 04:02:00;;;;;;;;;;;4.70;99.90;;;;;;2066028;28;19936;-71
2023/04/09 04:03:01;;;;;;;;;;;4.70;99.90;;;;;;2057703;28;19954;-71
2023/04/09 04:04:01;;;;;;;;;;;4.70;99.90;;;;;;2059456;28;20403;-71
2023/04/09 04:05:01;;;;;;;;;;;4.70;99.90;;;;;;2057606;28;19910;-71
2023/04/09 04:06:02;;;;;;;;;;;4.60;99.90;;;;;;2059830;28;20390;-71
2023/04/09 04:07:03;;;;;;;;;;;4.60;99.90;;;;;;2061817;28;19909;-71
2023/04/09 04:08:03;;;;;;;;;;;4.60;99.90;;;;;;2058289;28;19922;-71
2023/04/09 04:09:04;;;;;;;;;;;4.60;99.90;;;;;;2057944;28;20016;-71
2023/04/09 04:10:05;;;;;;;;;;;4.60;99.90;;;;;;2066027;28;20045;-71
2023/04/09 04:11:05;;;;;;;;;;;4.60;99.90;;;;;;2058615;28;20314;-71
2023/04/09 04:12:06;;;;;;;;;;;4.60;99.90;;;;;;2057051;28;20013;-72
2023/04/09 04:13:07;;;;;;;;;;;4.60;99.90;;;;;;2057781;28;20004;-71
2023/04/09 04:14:07;;;;;;;;;;;4.50;99.90;;;;;;2059131;28;19914;-71
2023/04/09 04:15:08;;;;;;;;;;;4.60;99.90;;;;;;2059178;28;19919;-71
2023/04/09 04:16:09;;;;;;;;;;;4.50;99.90;;;;;;2056634;28;20306;-71
2023/04/09 04:17:09;;;;;;;;;;;4.50;99.90;;;;;;2059549;28;20357;-71
2023/04/09 04:18:10;;;;;;;;;;;4.50;99.90;;;;;;2057583;28;19910;-71
2023/04/09 04:19:10;;;;;;;;;;;4.50;99.90;;;;;;2061842;28;19943;-71
2023/04/09 04:20:11;;;;;;;;;;;4.40;99.90;;;;;;2058196;28;19947;-71
2023/04/09 04:21:12;;;;;;;;;;;4.40;99.90;;;;;;2073503;28;19921;-71
2023/04/09 04:22:12;;;;;;;;;;;4.50;99.90;;;;;;2073516;28;20273;-71
2023/04/09 04:23:13;;;;;;;;;;;4.40;99.90;;;;;;2056656;28;19914;-72
2023/04/09 04:24:13;;;;;;;;;;;4.40;99.90;;;;;;2058887;28;19948;-72
2023/04/09 04:25:14;;;;;;;;;;;4.40;99.90;;;;;;2058473;28;19914;-72
2023/04/09 04:26:14;;;;;;;;;;;4.40;99.90;;;;;;2059464;28;19925;-72
2023/04/09 04:27:15;;;;;;;;;;;4.40;99.90;;;;;;2058827;28;20292;-71
2023/04/09 04:28:15;;;;;;;;;;;4.40;99.90;;;;;;2059768;28;19918;-71
2023/04/09 04:29:16;;;;;;;;;;;4.40;99.90;;;;;;2058950;28;20399;-71
2023/04/09 04:30:16;;;;;;;;;;;4.30;99.90;;;;;;2057273;28;19906;-71
2023/04/09 04:31:16;;;;;;;;;;;4.30;99.90;;;;;;2065966;28;19914;-71
2023/04/09 04:32:17;;;;;;;;;;;4.30;99.90;;;;;;2072179;28;20344;-72
2023/04/09 04:33:17;;;;;;;;;;;4.30;99.90;;;;;;2072051;28;19921;-72
2023/04/09 04:34:18;;;;;;;;;;;4.30;99.90;;;;;;2056657;28;19945;-72
2023/04/09 04:35:20;;;;;;;;;;;4.30;99.90;;;;;;2059109;28;19925;-72
2023/04/09 04:36:20;;;;;;;;;;;4.20;99.90;;;;;;2056369;28;19925;-72
2023/04/09 04:37:21;;;;;;;;;;;4.20;99.90;;;;;;2059444;28;19920;-72
2023/04/09 04:38:21;;;;;;;;;;;4.20;99.90;;;;;;2061365;28;20363;-72
2023/04/09 04:39:22;;;;;;;;;;;4.30;99.90;;;;;;2056180;28;19910;-72
2023/04/09 04:40:22;;;;;;;;;;;4.20;99.90;;;;;;2057283;28;20285;-72
2023/04/09 04:41:23;;;;;;;;;;;4.20;99.90;;;;;;2057761;28;19913;-72
2023/04/09 04:42:23;;;;;;;;;;;4.20;99.90;;;;;;2056860;28;19921;-72
2023/04/09 04:43:24;;;;;;;;;;;4.20;99.90;;;;;;2061079;28;20485;-72
2023/04/09 04:44:24;;;;;;;;;;;4.20;99.90;;;;;;2058366;28;19918;-72
2023/04/09 04:45:25;;;;;;;;;;;4.20;99.90;;;;;;2056418;28;20405;-72
2023/04/09 04:46:25;;;;;;;;;;;4.20;99.90;;;;;;2055746;28;20001;-72
2023/04/09 04:47:26;;;;;;;;;;;4.20;99.90;;;;;;2055513;28;19910;-72
2023/04/09 04:48:27;;;;;;;;;;;4.10;99.90;;;;;;2058460;28;19925;-72
2023/04/09 04:49:27;;;;;;;;;;;4.10;99.90;;;;;;2055481;28;20032;-72
2023/04/09 04:50:28;;;;;;;;;;;4.10;99.90;;;;;;2065732;28;20007;-72
2023/04/09 04:51:30;;;;;;;;;;;4.10;99.90;;;;;;2064018;28;21761;-72
2023/04/09 04:52:30;;;;;;;;;;;4.10;99.90;;;;;;2056625;28;19955;-72
2023/04/09 04:53:31;;;;;;;;;;;4.10;99.90;;;;;;2057455;28;20428;-71
2023/04/09 04:54:32;;;;;;;;;;;4.10;99.90;;;;;;2057917;28;19937;-71
2023/04/09 04:55:35;;;;;;;;;;;4.10;99.90;;;;;;2059717;28;19914;-71
2023/04/09 04:56:36;;;;;;;;;;;4.10;99.90;;;;;;2058725;28;20405;-71
2023/04/09 04:57:36;;;;;;;;;;;4.10;99.90;;;;;;2057471;28;19913;-71
2023/04/09 04:58:37;;;;;;;;;;;4.10;99.90;;;;;;2055850;28;19918;-72
2023/04/09 04:59:38;;;;;;;;;;;4.00;99.90;;;;;;2059378;28;19917;-71
2023/04/09 05:00:39;;;;;;;;;;;4.00;99.90;;;;;;2059702;28;19920;-71
2023/04/09 05:01:39;;;;;;;;;;;4.00;99.90;;;;;;2056348;28;19920;-71
2023/04/09 05:02:40;;;;;;;;;;;4.00;99.90;;;;;;2058772;28;19918;-71
2023/04/09 05:03:40;;;;;;;;;;;4.00;99.90;;;;;;2059316;28;20378;-71
2023/04/09 05:04:40;;;;;;;;;;;4.00;99.90;;;;;;2058663;28;19913;-72
2023/04/09 05:05:41;;;;;;;;;;;4.00;99.90;;;;;;2057970;28;19917;-72
2023/04/09 05:06:41;;;;;;;;;;;4.00;99.90;;;;;;2057615;28;19913;-72
2023/04/09 05:07:42;;;;;;;;;;;4.00;99.90;;;;;;2056070;28;20004;-71
2023/04/09 05:08:42;;;;;;;;;;;4.00;99.90;;;;;;2056758;28;20349;-71
2023/04/09 05:09:43;;;;;;;;;;;4.00;99.90;;;;;;2057521;28;19913;-72
2023/04/09 05:10:45;;;;;;;;;;;4.00;99.90;;;;;;2056933;28;19914;-72
2023/04/09 05:11:46;;;;;;;;;;;4.00;99.90;;;;;;2060712;28;19914;-72
2023/04/09 05:12:46;;;;;;;;;;;4.00;99.90;;;;;;2058350;28;20045;-71
2023/04/09 05:13:47;;;;;;;;;;;4.00;99.90;;;;;;2058359;28;19910;-72
2023/04/09 05:14:47;;;;;;;;;;;4.00;99.90;;;;;;2057453;28;19910;-71
2023/04/09 05:15:47;;;;;;;;;;;4.00;99.90;;;;;;2057090;28;19965;-71
2023/04/09 05:16:48;;;;;;;;;;;3.90;99.90;;;;;;2061796;28;20832;-71
2023/04/09 05:17:49;;;;;;;;;;;4.00;99.90;;;;;;2062417;28;20337;-71
2023/04/09 05:18:49;;;;;;;;;;;4.00;99.90;;;;;;2063691;28;20281;-71
2023/04/09 05:19:53;;;;;;;;;;;4.00;99.90;;;;;;2063679;28;19924;-71
2023/04/09 05:20:53;;;;;;;;;;;4.00;99.90;;;;;;2064310;28;19928;-71
2023/04/09 05:21:53;;;;;;;;;;;4.00;99.90;;;;;;2058330;28;20409;-71
2023/04/09 05:22:54;;;;;;;;;;;4.00;99.90;;;;;;2060416;28;19964;-71
2023/04/09 05:23:54;;;;;;;;;;;3.90;99.90;;;;;;2056732;28;19917;-71
2023/04/09 05:24:55;;;;;;;;;;;4.00;99.90;;;;;;2057091;28;20381;-71
2023/04/09 05:25:55;;;;;;;;;;;4.00;99.90;;;;;;2060012;28;19914;-71
2023/04/09 05:26:56;;;;;;;;;;;4.00;99.90;;;;;;2062515;28;19996;-71
2023/04/09 05:27:56;;;;;;;;;;;4.00;99.90;;;;;;2056319;28;19920;-71
2023/04/09 05:28:57;;;;;;;;;;;4.00;99.90;;;;;;2058930;28;19999;-71
2023/04/09 05:29:57;;;;;;;;;;;4.00;99.90;;;;;;2055598;28;19940;-71
2023/04/09 05:30:58;;;;;;;;;;;4.00;99.90;;;;;;2057492;28;20309;-71
2023/04/09 05:31:58;;;;;;;;;;;4.00;99.90;;;;;;2060408;28;19917;-71
2023/04/09 05:32:59;;;;;;;;;;;4.00;99.90;;;;;;2065704;28;20011;-71
2023/04/09 05:33:59;;;;;;;;;;;4.00;99.90;;;;;;2058224;28;19910;-71
2023/04/09 05:35:00;;;;;;;;;;;4.00;99.90;;;;;;2056725;28;19976;-71
2023/04/09 05:36:00;;;;;;;;;;;4.00;99.90;;;;;;2059177;28;19910;-71
2023/04/09 05:37:00;;;;;;;;;;;4.00;99.90;;;;;;2058106;28;19910;-71
2023/04/09 05:38:01;;;;;;;;;;;4.00;99.90;;;;;;2057070;28;19969;-71
2023/04/09 05:39:01;;;;;;;;;;;4.00;99.90;;;;;;2053901;28;19920;-71
2023/04/09 05:40:02;;;;;;;;;;;4.00;99.90;;;;;;2058833;28;19996;-71
2023/04/09 05:41:02;;;;;;;;;;;4.00;99.90;;;;;;2057379;28;20588;-71
2023/04/09 05:42:03;;;;;;;;;;;4.00;99.90;;;;;;2058470;28;20273;-71
2023/04/09 05:43:04;;;;;;;;;;;4.10;99.90;;;;;;2059716;28;19967;-71
2023/04/09 05:44:04;;;;;;;;;;;4.10;99.90;;;;;;2058820;28;21221;-71
2023/04/09 05:45:05;;;;;;;;;;;4.10;99.90;;;;;;2060024;28;19914;-71
2023/04/09 05:46:06;;;;;;;;;;;4.10;99.90;;;;;;2062051;28;19914;-71
2023/04/09 05:47:06;;;;;;;;;;;4.10;99.90;;;;;;2061876;28;19906;-71
2023/04/09 05:48:07;;;;;;;;;;;4.20;99.90;;;;;;2061766;28;19913;-71
2023/04/09 05:49:07;;;;;;;;;;;4.20;99.90;;;;;;2059577;28;19918;-71
2023/04/09 05:50:08;;;;;;;;;;;4.20;99.90;;;;;;2061021;28;19972;-71
2023/04/09 05:51:08;;;;;;;;;;;4.20;99.90;;;;;;2059483;28;19918;-71
2023/04/09 05:52:09;;;;;;;;;;;4.20;99.90;;;;;;2074227;28;20002;-71
2023/04/09 05:53:09;;;;;;;;;;;4.30;99.90;;;;;;2074513;28;20516;-71
2023/04/09 05:54:10;;;;;;;;;;;4.30;99.90;;;;;;2059841;28;19930;-71
2023/04/09 05:55:10;;;;;;;;;;;4.30;99.90;;;;;;2061074;28;20262;-71
2023/04/09 05:56:14;;;;;;;;;;;4.40;99.90;;;;;;2058702;28;20369;-71
2023/04/09 05:57:15;;;;;;;;;;;4.40;99.90;;;;;;2061589;28;19914;-71
2023/04/09 05:58:17;;;;;;;;;;;4.50;99.90;;;;;;2059289;28;20009;-71
2023/04/09 05:59:17;;;;;;;;;;;4.50;99.90;;;;;;2065175;28;19917;-71
2023/04/09 06:00:18;;;;;;;;;;;4.50;99.90;;;;;;2065457;28;20012;-71
2023/04/09 06:01:19;;;;;;;;;;;4.50;99.90;;;;;;2057806;28;19910;-71
2023/04/09 06:02:19;;;;;;;;;;;4.60;99.90;;;;;;2058189;28;19932;-71